HHI Airport (Wheeler Aaf) Information

FAA: HHI - ICAO: PHHI

HHI Airport Location

State Hawaii
County Honolulu
City Wahiawa
HHI Airport is 1 mile southwest of Wahiawa, HI.
Latitude 21-28-53.2000N
Longitude 158-02-16.2000W
Elevation 843ft

PHHI Airport METARs

METAR PHHI 200156Z AUTO 06010KT 10SM FEW040 26/14 A3005 RMK AO2 SLP167 T02590140 $
Altimeter 30.05"
Temperature 25.9°C (78.6°F)
Wind 60° at 10KT
Clouds few at 4,000ft
Visibility 10.0mi
Time observed: 2021-10-20T01:56:00Z

HHI Airport Details

Status Operational
Activation July 1946
Ownership Military - Army
Usage Private
Chart HAWAIIAN ISLANDS
ATC on-site Yes
Beacon schedule sunset-sunrise
Beacon color clear green

HHI Airport Contacts

Owner U S ARMY
Owner address WHEELER AAF SCHOFLD BARRACKS, WAHIAWA, HI
Owner phone N/A
Manager ANDREW GILES
Manager address 3288 MOANALUA RD., HONOLULU, HI 96819
Manager phone (808) 432-7960

HHI Airport (Wheeler Aaf) Radio Frequencies

HHI (Airport) Radio Frequencies

UNICOM N/A
Common traffic advisory frequency (CTAF) 126.3